createdAt,value
2018-07-11T00:02:11.879Z,6.70
2018-07-11T00:04:40.510Z,7.50
2018-07-11T00:07:08.842Z,7.70
2018-07-11T00:09:37.035Z,7.30
2018-07-11T00:12:05.272Z,7.10
2018-07-11T00:14:33.530Z,7.83
2018-07-11T00:17:10.811Z,7.30
2018-07-11T00:19:39.119Z,7.70
2018-07-11T00:22:24.747Z,7.27
2018-07-11T00:24:52.974Z,8.13
2018-07-11T00:27:21.189Z,8.30
2018-07-11T00:29:49.406Z,7.07
2018-07-11T00:32:17.649Z,7.20
2018-07-11T00:34:45.888Z,7.80
2018-07-11T00:37:14.209Z,7.40
2018-07-11T00:39:42.394Z,8.60
2018-07-11T00:42:10.631Z,7.23
2018-07-11T00:44:38.858Z,7.80
2018-07-11T00:47:07.176Z,8.20
2018-07-11T00:49:35.404Z,8.70
2018-07-11T00:52:03.708Z,6.90
2018-07-11T00:54:31.952Z,6.70
2018-07-11T00:57:01.011Z,7.80
2018-07-11T00:59:32.052Z,8.07
2018-07-11T01:02:04.170Z,7.43
2018-07-11T01:04:32.570Z,7.93
2018-07-11T01:07:02.580Z,8.40
2018-07-11T01:09:32.715Z,7.70
2018-07-11T01:12:00.939Z,7.53
2018-07-11T01:14:29.173Z,8.00
2018-07-11T01:16:57.447Z,8.20
2018-07-11T01:19:25.659Z,8.27
2018-07-11T01:22:01.713Z,8.50
2018-07-11T01:24:31.079Z,8.20
2018-07-11T01:27:00.235Z,7.97
2018-07-11T01:29:28.447Z,8.50
2018-07-11T01:31:56.667Z,8.63
2018-07-11T01:34:24.978Z,8.63
2018-07-11T01:36:53.165Z,8.63
2018-07-11T01:39:21.393Z,8.70
2018-07-11T01:41:49.622Z,8.63
2018-07-11T01:44:17.858Z,8.20
2018-07-11T01:46:49.785Z,8.90
2018-07-11T01:49:18.048Z,8.50
2018-07-11T01:51:58.198Z,8.73
2018-07-11T01:54:27.290Z,9.60
2018-07-11T01:56:55.554Z,9.00
2018-07-11T01:59:26.431Z,8.70
2018-07-11T02:01:54.919Z,8.20
2018-07-11T02:04:23.210Z,9.27
2018-07-11T02:06:51.544Z,9.10
2018-07-11T02:09:19.770Z,8.70
2018-07-11T02:11:48.031Z,9.33
2018-07-11T02:14:16.299Z,9.40
2018-07-11T02:16:44.734Z,10.03
2018-07-11T02:19:12.974Z,10.17
2018-07-11T02:21:41.574Z,9.10
2018-07-11T02:24:09.797Z,10.40
2018-07-11T02:26:38.047Z,10.57
2018-07-11T02:29:06.307Z,10.03
2018-07-11T02:31:34.552Z,10.53
2018-07-11T02:34:02.851Z,9.83
2018-07-11T02:36:31.115Z,11.00
2018-07-11T02:38:59.353Z,11.07
2018-07-11T02:41:27.558Z,11.13
2018-07-11T02:43:55.792Z,10.90
2018-07-11T02:46:29.273Z,11.23
2018-07-11T02:48:57.751Z,10.60
2018-07-11T02:51:25.971Z,11.77
2018-07-11T02:53:54.283Z,10.63
2018-07-11T02:56:22.473Z,11.17
2018-07-11T02:58:50.756Z,10.60
2018-07-11T03:01:19.063Z,10.40
2018-07-11T03:03:47.288Z,11.20
2018-07-11T03:06:15.529Z,10.13
2018-07-11T03:08:43.755Z,10.10
2018-07-11T03:11:11.971Z,12.30
2018-07-11T03:13:40.226Z,11.07
2018-07-11T03:16:08.438Z,10.60
2018-07-11T03:18:36.644Z,9.90
2018-07-11T03:21:04.938Z,9.80
2018-07-11T03:23:33.339Z,9.80
2018-07-11T03:26:01.554Z,10.00
2018-07-11T03:28:29.810Z,10.03
2018-07-11T03:30:58.044Z,11.93
2018-07-11T03:33:26.255Z,11.37
2018-07-11T03:35:54.499Z,11.73
2018-07-11T03:38:22.711Z,11.70
2018-07-11T03:40:50.919Z,11.67
2018-07-11T03:43:19.166Z,11.63
2018-07-11T03:45:47.391Z,11.17
2018-07-11T03:48:15.614Z,11.50
2018-07-11T03:50:43.834Z,11.57
2018-07-11T03:53:13.078Z,11.27
2018-07-11T03:55:41.383Z,11.53
2018-07-11T03:58:09.583Z,12.33
2018-07-11T04:00:37.866Z,12.10
2018-07-11T04:03:06.158Z,11.23
2018-07-11T04:05:34.431Z,11.70
2018-07-11T04:08:02.669Z,12.93
2018-07-11T04:10:33.743Z,12.40
2018-07-11T04:13:02.555Z,11.97
2018-07-11T04:15:30.814Z,11.27
2018-07-11T04:17:59.014Z,11.90
2018-07-11T04:20:27.231Z,11.40
2018-07-11T04:22:55.465Z,12.80
2018-07-11T04:25:23.759Z,11.53
2018-07-11T04:27:52.026Z,12.33
2018-07-11T04:30:20.333Z,11.70
2018-07-11T04:32:48.815Z,12.33
2018-07-11T04:35:17.362Z,12.33
2018-07-11T04:37:45.632Z,13.13
2018-07-11T04:40:13.890Z,11.73
2018-07-11T04:42:42.141Z,11.90
2018-07-11T04:45:10.438Z,11.47
2018-07-11T04:47:38.735Z,12.63
2018-07-11T04:50:07.032Z,13.30
2018-07-11T04:52:35.303Z,11.70
2018-07-11T04:55:03.520Z,11.93
2018-07-11T04:57:31.768Z,12.60
2018-07-11T04:59:59.961Z,12.83
2018-07-11T05:02:28.166Z,11.83
2018-07-11T05:04:56.409Z,13.50
2018-07-11T05:07:24.603Z,13.13
2018-07-11T05:09:52.851Z,13.17
2018-07-11T05:12:21.106Z,13.87
2018-07-11T05:14:49.311Z,14.60
2018-07-11T05:17:17.535Z,13.30
2018-07-11T05:19:45.778Z,14.53
2018-07-11T05:22:13.962Z,14.47
2018-07-11T05:24:42.184Z,14.63
2018-07-11T05:27:10.420Z,15.40
2018-07-11T05:29:38.627Z,14.53
2018-07-11T05:32:06.861Z,15.50
2018-07-11T05:34:35.075Z,14.27
2018-07-11T05:37:03.269Z,15.60
2018-07-11T05:39:31.463Z,15.50
2018-07-11T05:41:59.671Z,16.73
2018-07-11T05:44:27.878Z,16.10
2018-07-11T05:47:01.482Z,13.87
2018-07-11T05:49:30.012Z,14.30
2018-07-11T05:51:58.351Z,14.47
2018-07-11T05:54:26.591Z,14.00
2018-07-11T05:56:54.939Z,15.10
2018-07-11T05:59:23.377Z,15.47
2018-07-11T06:01:51.725Z,14.83
2018-07-11T06:04:20.216Z,15.13
2018-07-11T06:06:48.672Z,15.17
2018-07-11T06:09:16.928Z,13.50
2018-07-11T06:11:45.139Z,14.30
2018-07-11T06:14:13.371Z,13.70
2018-07-11T06:16:41.628Z,13.20
2018-07-11T06:19:09.859Z,12.97
2018-07-11T06:21:38.115Z,11.47
2018-07-11T06:24:06.669Z,12.70
2018-07-11T06:26:34.922Z,14.40
2018-07-11T06:29:03.215Z,14.13
2018-07-11T06:31:31.421Z,15.30
2018-07-11T06:33:59.699Z,16.33
2018-07-11T06:36:27.960Z,15.60
2018-07-11T06:38:56.237Z,16.23
2018-07-11T06:41:24.536Z,16.70
2018-07-11T06:43:52.903Z,14.67
2018-07-11T06:46:21.259Z,15.17
2018-07-11T06:48:49.648Z,14.37
2018-07-11T06:51:17.934Z,14.80
2018-07-11T06:53:46.139Z,15.00
2018-07-11T06:56:14.396Z,13.93
2018-07-11T06:58:42.694Z,14.50
2018-07-11T07:01:10.965Z,14.30
2018-07-11T07:03:39.566Z,13.83
2018-07-11T07:06:07.778Z,14.00
2018-07-11T07:08:35.998Z,14.27
2018-07-11T07:11:04.211Z,13.80
2018-07-11T07:13:32.422Z,13.73
2018-07-11T07:16:00.633Z,15.17
2018-07-11T07:18:29.046Z,14.07
2018-07-11T07:20:57.233Z,14.20
2018-07-11T07:23:25.409Z,13.50
2018-07-11T07:25:53.602Z,12.73
2018-07-11T07:28:21.794Z,11.93
2018-07-11T07:30:49.999Z,14.03
2018-07-11T07:33:18.206Z,13.00
2018-07-11T07:35:46.390Z,15.23
2018-07-11T07:38:14.577Z,13.60
2018-07-11T07:40:42.770Z,13.00
2018-07-11T07:43:10.971Z,13.10
2018-07-11T07:45:39.849Z,15.10
2018-07-11T07:48:08.043Z,15.57
2018-07-11T07:50:36.257Z,14.80
2018-07-11T07:53:04.523Z,14.47
2018-07-11T07:55:32.792Z,15.13
2018-07-11T07:58:01.018Z,14.67
2018-07-11T08:00:29.229Z,14.63
2018-07-11T08:02:57.898Z,15.40
2018-07-11T08:05:26.126Z,13.70
2018-07-11T08:07:54.340Z,14.50
2018-07-11T08:10:22.601Z,14.83
2018-07-11T08:12:50.835Z,16.20
2018-07-11T08:15:19.033Z,13.33
2018-07-11T08:17:47.229Z,15.73
2018-07-11T08:20:15.499Z,14.27
2018-07-11T08:23:21.747Z,14.23
2018-07-11T08:26:02.265Z,14.03
2018-07-11T08:30:48.909Z,15.00
2018-07-11T08:33:27.717Z,14.40
2018-07-11T08:37:04.832Z,15.23
2018-07-11T08:39:44.394Z,13.97
2018-07-11T08:42:23.270Z,12.67
2018-07-11T08:49:09.982Z,13.60
2018-07-11T08:51:49.091Z,12.43
2018-07-11T08:56:48.319Z,12.13
2018-07-11T08:59:32.581Z,10.20
2018-07-11T09:05:21.822Z,9.20
2018-07-11T09:09:07.418Z,9.67
2018-07-11T09:11:46.766Z,11.03
2018-07-11T09:14:27.938Z,11.10
2018-07-11T09:17:19.650Z,12.00
2018-07-11T09:22:07.181Z,12.10
2018-07-11T09:24:45.357Z,11.87
2018-07-11T09:27:13.777Z,11.80
2018-07-11T09:29:42.957Z,11.87
2018-07-11T09:32:11.864Z,12.33
2018-07-11T09:34:40.174Z,13.30
2018-07-11T09:37:08.646Z,11.93
2018-07-11T09:39:37.051Z,11.67
2018-07-11T09:42:05.469Z,11.50
2018-07-11T09:44:33.904Z,12.00
2018-07-11T09:47:06.288Z,13.00
2018-07-11T09:49:35.522Z,12.63
2018-07-11T09:52:03.703Z,11.50
2018-07-11T09:54:32.932Z,11.00
2018-07-11T09:57:01.284Z,10.90
2018-07-11T09:59:29.552Z,10.90
2018-07-11T10:01:57.962Z,11.10
2018-07-11T10:04:27.033Z,12.10
2018-07-11T10:06:55.274Z,9.50
2018-07-11T10:09:23.504Z,10.77
2018-07-11T10:11:52.082Z,9.87
2018-07-11T10:14:20.464Z,10.93
2018-07-11T10:16:48.691Z,10.93
2018-07-11T10:19:16.918Z,11.43
2018-07-11T10:21:45.245Z,12.23
2018-07-11T10:24:13.393Z,12.27
2018-07-11T10:26:41.603Z,12.20
2018-07-11T10:29:09.808Z,10.87
2018-07-11T10:31:38.004Z,11.70
2018-07-11T10:34:06.261Z,11.10
2018-07-11T10:36:34.562Z,11.00
2018-07-11T10:39:02.820Z,10.57
2018-07-11T10:41:31.006Z,10.83
2018-07-11T10:43:59.436Z,10.63
2018-07-11T10:46:27.693Z,10.20
2018-07-11T10:48:55.899Z,10.53
2018-07-11T10:51:24.109Z,10.13
2018-07-11T10:53:52.352Z,9.70
2018-07-11T10:56:20.542Z,10.90
2018-07-11T10:58:48.817Z,10.93
2018-07-11T11:01:18.000Z,10.87
2018-07-11T11:03:46.603Z,10.00
2018-07-11T11:06:14.830Z,10.57
2018-07-11T11:08:43.043Z,9.03
2018-07-11T11:11:12.141Z,10.10
2018-07-11T11:13:40.373Z,10.60
2018-07-11T11:16:08.634Z,11.13
2018-07-11T11:18:36.830Z,9.90
2018-07-11T11:21:05.113Z,10.30
2018-07-11T11:23:33.346Z,10.00
2018-07-11T11:26:01.561Z,9.90
2018-07-11T11:28:33.723Z,10.83
2018-07-11T11:31:01.934Z,9.97
2018-07-11T11:33:30.175Z,10.57
2018-07-11T11:35:58.391Z,9.83
2018-07-11T11:38:26.810Z,9.60
2018-07-11T11:40:55.054Z,10.63
2018-07-11T11:43:23.271Z,8.37
2018-07-11T11:45:51.493Z,10.60
2018-07-11T11:48:19.705Z,10.53
2018-07-11T11:50:47.938Z,9.93
2018-07-11T11:53:16.157Z,9.40
2018-07-11T11:55:44.382Z,9.27
2018-07-11T11:58:12.619Z,8.60
2018-07-11T12:00:40.846Z,10.00
2018-07-11T12:03:09.077Z,9.00
2018-07-11T12:05:37.286Z,7.73
2018-07-11T12:08:05.502Z,10.27
2018-07-11T12:10:33.697Z,9.77
2018-07-11T12:13:01.900Z,9.90
2018-07-11T12:15:30.118Z,9.80
2018-07-11T12:17:58.308Z,8.87
2018-07-11T12:20:26.581Z,9.57
2018-07-11T12:22:54.825Z,9.40
2018-07-11T12:25:23.088Z,9.37
2018-07-11T12:27:51.341Z,8.00
2018-07-11T12:30:19.538Z,9.30
2018-07-11T12:32:47.759Z,7.10
2018-07-11T12:35:15.987Z,8.30
2018-07-11T12:37:44.875Z,7.67
2018-07-11T12:40:13.172Z,7.43
2018-07-11T12:42:41.406Z,6.30
2018-07-11T12:45:09.603Z,7.70
2018-07-11T12:47:43.262Z,6.87
2018-07-11T12:50:11.473Z,7.10
2018-07-11T12:52:39.706Z,7.60
2018-07-11T12:55:07.937Z,8.10
2018-07-11T12:57:36.270Z,7.60
2018-07-11T13:00:04.512Z,7.87
2018-07-11T13:02:33.717Z,8.07
2018-07-11T13:05:02.222Z,7.63
2018-07-11T13:07:31.111Z,8.00
2018-07-11T13:09:59.585Z,8.37
2018-07-11T13:12:27.817Z,7.73
2018-07-11T13:14:56.050Z,8.77
2018-07-11T13:17:24.284Z,8.00
2018-07-11T13:19:52.494Z,8.30
2018-07-11T13:22:20.714Z,8.77
2018-07-11T13:24:48.935Z,8.20
2018-07-11T13:27:17.144Z,8.07
2018-07-11T13:29:45.377Z,8.50
2018-07-11T13:32:14.404Z,8.53
2018-07-11T13:34:42.613Z,9.40
2018-07-11T13:37:10.879Z,7.60
2018-07-11T13:39:39.098Z,8.80
2018-07-11T13:42:07.321Z,8.03
2018-07-11T13:44:35.533Z,8.77
2018-07-11T13:47:07.962Z,9.20
2018-07-11T13:49:36.170Z,8.43
2018-07-11T13:52:05.066Z,8.23
2018-07-11T13:54:33.282Z,7.67
2018-07-11T13:57:01.543Z,7.77
2018-07-11T13:59:29.800Z,8.50
2018-07-11T14:01:58.086Z,9.00
2018-07-11T14:04:26.306Z,8.37
2018-07-11T14:06:54.560Z,7.70
2018-07-11T14:09:22.906Z,7.83
2018-07-11T14:11:51.171Z,7.70
2018-07-11T14:14:19.429Z,7.17
2018-07-11T14:16:48.059Z,7.07
2018-07-11T14:19:16.338Z,7.63
2018-07-11T14:21:44.573Z,7.37
2018-07-11T14:24:13.799Z,8.00
2018-07-11T14:26:41.994Z,7.70
2018-07-11T14:29:10.231Z,8.07
2018-07-11T14:31:38.501Z,7.30
2018-07-11T14:34:08.401Z,7.70
2018-07-11T14:36:36.950Z,7.77
2018-07-11T14:39:06.626Z,7.97
2018-07-11T14:50:13.064Z,8.17
2018-07-11T14:52:41.332Z,7.97
2018-07-11T14:55:09.602Z,6.97
2018-07-11T14:57:38.890Z,7.47
